sensor_id;sensor_type;location;lat;lon;timestamp;pressure;altitude;pressure_sealevel;temperature;humidity
71476;BME280;59286;59.274;17.974;2024-01-15T00:02:02;98200.66;;;-3.86;100.00
71476;BME280;59286;59.274;17.974;2024-01-15T00:04:28;98191.41;;;-3.87;100.00
71476;BME280;59286;59.274;17.974;2024-01-15T00:06:53;98191.69;;;-3.88;100.00
71476;BME280;59286;59.274;17.974;2024-01-15T00:09:19;98185.56;;;-3.92;100.00
71476;BME280;59286;59.274;17.974;2024-01-15T00:11:44;98167.66;;;-3.92;100.00
71476;BME280;59286;59.274;17.974;2024-01-15T00:14:11;98173.00;;;-3.89;100.00
71476;BME280;59286;59.274;17.974;2024-01-15T00:16:37;98173.28;;;-4.01;100.00
71476;BME280;59286;59.274;17.974;2024-01-15T00:19:02;98175.84;;;-4.01;100.00
71476;BME280;59286;59.274;17.974;2024-01-15T00:21:27;98174.03;;;-3.95;100.00
71476;BME280;59286;59.274;17.974;2024-01-15T00:23:53;98170.22;;;-4.08;100.00
71476;BME280;59286;59.274;17.974;2024-01-15T00:26:18;98164.34;;;-4.03;100.00
71476;BME280;59286;59.274;17.974;2024-01-15T00:28:44;98167.69;;;-4.08;100.00
71476;BME280;59286;59.274;17.974;2024-01-15T00:31:09;98166.91;;;-4.08;100.00
71476;BME280;59286;59.274;17.974;2024-01-15T00:33:34;98169.22;;;-4.02;100.00
71476;BME280;59286;59.274;17.974;2024-01-15T00:36:00;98160.53;;;-4.11;100.00
71476;BME280;59286;59.274;17.974;2024-01-15T00:38:26;98153.88;;;-4.12;100.00
71476;BME280;59286;59.274;17.974;2024-01-15T00:40:51;98155.41;;;-4.11;100.00
71476;BME280;59286;59.274;17.974;2024-01-15T00:43:16;98142.38;;;-4.19;100.00
71476;BME280;59286;59.274;17.974;2024-01-15T00:45:44;98157.22;;;-4.16;100.00
71476;BME280;59286;59.274;17.974;2024-01-15T00:48:09;98156.97;;;-4.20;100.00
71476;BME280;59286;59.274;17.974;2024-01-15T00:50:34;98137.53;;;-4.26;100.00
71476;BME280;59286;59.274;17.974;2024-01-15T00:53:00;98156.44;;;-4.17;100.00
71476;BME280;59286;59.274;17.974;2024-01-15T00:55:25;98143.69;;;-4.22;100.00
71476;BME280;59286;59.274;17.974;2024-01-15T00:57:51;98135.22;;;-4.17;100.00
71476;BME280;59286;59.274;17.974;2024-01-15T01:00:16;98129.09;;;-4.16;100.00
71476;BME280;59286;59.274;17.974;2024-01-15T01:02:41;98132.41;;;-4.11;100.00
71476;BME280;59286;59.274;17.974;2024-01-15T01:05:07;98125.00;;;-4.17;100.00
71476;BME280;59286;59.274;17.974;2024-01-15T01:07:32;98124.22;;;-4.18;100.00
71476;BME280;59286;59.274;17.974;2024-01-15T01:09:57;98115.03;;;-4.19;100.00
71476;BME280;59286;59.274;17.974;2024-01-15T01:12:23;98125.75;;;-4.07;100.00
71476;BME280;59286;59.274;17.974;2024-01-15T01:14:48;98118.09;;;-4.17;100.00
71476;BME280;59286;59.274;17.974;2024-01-15T01:17:14;98108.41;;;-4.30;100.00
71476;BME280;59286;59.274;17.974;2024-01-15T01:19:39;98119.13;;;-4.23;100.00
71476;BME280;59286;59.274;17.974;2024-01-15T01:22:04;98117.06;;;-4.21;100.00
71476;BME280;59286;59.274;17.974;2024-01-15T01:24:30;98105.84;;;-4.30;100.00
71476;BME280;59286;59.274;17.974;2024-01-15T01:26:55;98109.41;;;-4.31;100.00
71476;BME280;59286;59.274;17.974;2024-01-15T01:29:20;98119.63;;;-4.21;100.00
71476;BME280;59286;59.274;17.974;2024-01-15T01:31:46;98117.59;;;-4.29;100.00
71476;BME280;59286;59.274;17.974;2024-01-15T01:34:14;98107.13;;;-4.32;100.00
71476;BME280;59286;59.274;17.974;2024-01-15T01:36:40;98117.09;;;-4.26;100.00
71476;BME280;59286;59.274;17.974;2024-01-15T01:39:05;98104.31;;;-4.31;100.00
71476;BME280;59286;59.274;17.974;2024-01-15T01:41:31;98114.03;;;-4.33;100.00
71476;BME280;59286;59.274;17.974;2024-01-15T01:43:56;98106.59;;;-4.34;100.00
71476;BME280;59286;59.274;17.974;2024-01-15T01:46:22;98096.66;;;-4.36;100.00
71476;BME280;59286;59.274;17.974;2024-01-15T01:48:48;98105.84;;;-4.30;100.00
71476;BME280;59286;59.274;17.974;2024-01-15T01:51:14;98099.19;;;-4.31;100.00
71476;BME280;59286;59.274;17.974;2024-01-15T01:53:40;98087.19;;;-4.35;100.00
71476;BME280;59286;59.274;17.974;2024-01-15T01:56:05;98079.78;;;-4.37;100.00
71476;BME280;59286;59.274;17.974;2024-01-15T01:58:32;98083.34;;;-4.38;100.00
71476;BME280;59286;59.274;17.974;2024-01-15T02:00:57;98081.84;;;-4.44;100.00
71476;BME280;59286;59.274;17.974;2024-01-15T02:03:24;98079.56;;;-4.50;100.00
71476;BME280;59286;59.274;17.974;2024-01-15T02:05:50;98082.13;;;-4.50;100.00
71476;BME280;59286;59.274;17.974;2024-01-15T02:08:15;98074.72;;;-4.57;100.00
71476;BME280;59286;59.274;17.974;2024-01-15T02:10:41;98076.50;;;-4.57;100.00
71476;BME280;59286;59.274;17.974;2024-01-15T02:13:06;98073.19;;;-4.58;100.00
71476;BME280;59286;59.274;17.974;2024-01-15T02:15:31;98077.53;;;-4.58;100.00
71476;BME280;59286;59.274;17.974;2024-01-15T02:20:24;98066.03;;;-4.56;100.00
71476;BME280;59286;59.274;17.974;2024-01-15T02:22:49;98079.28;;;-4.49;100.00
71476;BME280;59286;59.274;17.974;2024-01-15T02:25:14;98075.72;;;-4.53;100.00
71476;BME280;59286;59.274;17.974;2024-01-15T02:27:41;98062.19;;;-4.58;100.00
71476;BME280;59286;59.274;17.974;2024-01-15T02:30:08;98057.88;;;-4.63;100.00
71476;BME280;59286;59.274;17.974;2024-01-15T02:32:34;98070.38;;;-4.56;100.00
71476;BME280;59286;59.274;17.974;2024-01-15T02:35:00;98066.53;;;-4.64;100.00
71476;BME280;59286;59.274;17.974;2024-01-15T02:37:25;98056.88;;;-4.72;100.00
71476;BME280;59286;59.274;17.974;2024-01-15T02:39:50;98060.44;;;-4.73;100.00
71476;BME280;59286;59.274;17.974;2024-01-15T02:42:16;98048.94;;;-4.80;100.00
71476;BME280;59286;59.274;17.974;2024-01-15T02:44:41;98056.34;;;-4.74;100.00
71476;BME280;59286;59.274;17.974;2024-01-15T02:47:06;98058.38;;;-4.71;100.00
71476;BME280;59286;59.274;17.974;2024-01-15T02:49:32;98059.41;;;-4.67;100.00
71476;BME280;59286;59.274;17.974;2024-01-15T02:51:57;98074.47;;;-4.65;100.00
71476;BME280;59286;59.274;17.974;2024-01-15T02:54:23;98078.28;;;-4.58;100.00
71476;BME280;59286;59.274;17.974;2024-01-15T02:56:48;98066.81;;;-4.65;100.00
71476;BME280;59286;59.274;17.974;2024-01-15T02:59:13;98058.41;;;-4.76;100.00
71476;BME280;59286;59.274;17.974;2024-01-15T03:01:38;98068.34;;;-4.74;100.00
71476;BME280;59286;59.274;17.974;2024-01-15T03:04:04;98062.47;;;-4.75;100.00
71476;BME280;59286;59.274;17.974;2024-01-15T03:06:29;98072.69;;;-4.75;100.00
71476;BME280;59286;59.274;17.974;2024-01-15T03:08:54;98065.03;;;-4.80;100.00
71476;BME280;59286;59.274;17.974;2024-01-15T03:11:20;98057.13;;;-4.78;100.00
71476;BME280;59286;59.274;17.974;2024-01-15T03:13:45;98069.63;;;-4.77;100.00
71476;BME280;59286;59.274;17.974;2024-01-15T03:16:10;98066.81;;;-4.75;100.00
71476;BME280;59286;59.274;17.974;2024-01-15T03:18:36;98067.59;;;-4.80;100.00
71476;BME280;59286;59.274;17.974;2024-01-15T03:21:01;98067.59;;;-4.85;100.00
71476;BME280;59286;59.274;17.974;2024-01-15T03:23:26;98074.22;;;-4.79;100.00
71476;BME280;59286;59.274;17.974;2024-01-15T03:25:52;98066.84;;;-4.85;100.00
71476;BME280;59286;59.274;17.974;2024-01-15T03:28:17;98068.13;;;-4.83;100.00
71476;BME280;59286;59.274;17.974;2024-01-15T03:30:43;98078.31;;;-4.78;100.00
71476;BME280;59286;59.274;17.974;2024-01-15T03:33:09;98055.84;;;-4.91;100.00
71476;BME280;59286;59.274;17.974;2024-01-15T03:35:34;98063.00;;;-4.88;100.00
71476;BME280;59286;59.274;17.974;2024-01-15T03:37:59;98076.25;;;-4.81;100.00
71476;BME280;59286;59.274;17.974;2024-01-15T03:40:25;98070.13;;;-4.90;100.00
71476;BME280;59286;59.274;17.974;2024-01-15T03:42:51;98068.38;;;-4.89;100.00
71476;BME280;59286;59.274;17.974;2024-01-15T03:45:16;98077.56;;;-4.99;100.00
71476;BME280;59286;59.274;17.974;2024-01-15T03:47:41;98072.69;;;-4.95;100.00
71476;BME280;59286;59.274;17.974;2024-01-15T03:50:07;98066.31;;;-5.03;100.00
71476;BME280;59286;59.274;17.974;2024-01-15T03:52:32;98074.75;;;-4.92;100.00
71476;BME280;59286;59.274;17.974;2024-01-15T03:54:58;98073.97;;;-5.03;100.00
71476;BME280;59286;59.274;17.974;2024-01-15T03:57:23;98085.47;;;-4.90;100.00
71476;BME280;59286;59.274;17.974;2024-01-15T03:59:48;98073.97;;;-4.87;100.00
71476;BME280;59286;59.274;17.974;2024-01-15T04:02:14;98080.13;;;-4.99;100.00
71476;BME280;59286;59.274;17.974;2024-01-15T04:04:43;98070.66;;;-4.88;100.00
71476;BME280;59286;59.274;17.974;2024-01-15T04:07:09;98058.41;;;-5.01;100.00
71476;BME280;59286;59.274;17.974;2024-01-15T04:09:34;98079.59;;;-4.96;100.00
71476;BME280;59286;59.274;17.974;2024-01-15T04:12:00;98088.03;;;-4.95;100.00
71476;BME280;59286;59.274;17.974;2024-01-15T04:14:25;98076.00;;;-5.00;100.00
71476;BME280;59286;59.274;17.974;2024-01-15T04:16:50;98056.63;;;-5.06;100.00
71476;BME280;59286;59.274;17.974;2024-01-15T04:19:16;98088.25;;;-5.02;100.00
71476;BME280;59286;59.274;17.974;2024-01-15T04:21:41;98072.72;;;-5.00;100.00
71476;BME280;59286;59.274;17.974;2024-01-15T04:24:06;98068.63;;;-5.01;100.00
71476;BME280;59286;59.274;17.974;2024-01-15T04:26:32;98075.75;;;-5.03;100.00
71476;BME280;59286;59.274;17.974;2024-01-15T04:28:57;98081.63;;;-5.03;100.00
71476;BME280;59286;59.274;17.974;2024-01-15T04:31:24;98083.69;;;-5.05;100.00
71476;BME280;59286;59.274;17.974;2024-01-15T04:33:50;98072.44;;;-5.19;100.00
71476;BME280;59286;59.274;17.974;2024-01-15T04:36:15;98082.91;;;-5.15;100.00
71476;BME280;59286;59.274;17.974;2024-01-15T04:38:41;98091.31;;;-5.20;100.00
71476;BME280;59286;59.274;17.974;2024-01-15T04:41:06;98089.53;;;-5.14;100.00
71476;BME280;59286;59.274;17.974;2024-01-15T04:43:34;98091.84;;;-5.13;100.00
71476;BME280;59286;59.274;17.974;2024-01-15T04:45:59;98077.78;;;-5.20;100.00
71476;BME280;59286;59.274;17.974;2024-01-15T04:48:25;98081.13;;;-5.25;100.00
71476;BME280;59286;59.274;17.974;2024-01-15T04:50:50;98088.50;;;-5.23;100.00
71476;BME280;59286;59.274;17.974;2024-01-15T04:53:16;98085.44;;;-5.30;100.00
71476;BME280;59286;59.274;17.974;2024-01-15T04:55:41;98093.63;;;-5.23;100.00
71476;BME280;59286;59.274;17.974;2024-01-15T04:58:06;98081.34;;;-5.31;100.00
71476;BME280;59286;59.274;17.974;2024-01-15T05:00:32;98086.75;;;-5.28;100.00
71476;BME280;59286;59.274;17.974;2024-01-15T05:02:57;98098.22;;;-5.25;100.00
71476;BME280;59286;59.274;17.974;2024-01-15T05:05:22;98086.72;;;-5.33;100.00
71476;BME280;59286;59.274;17.974;2024-01-15T05:07:47;98093.09;;;-5.30;100.00
71476;BME280;59286;59.274;17.974;2024-01-15T05:10:13;98093.59;;;-5.38;100.00
71476;BME280;59286;59.274;17.974;2024-01-15T05:12:38;98093.09;;;-5.35;100.00
71476;BME280;59286;59.274;17.974;2024-01-15T05:15:04;98081.09;;;-5.45;100.00
71476;BME280;59286;59.274;17.974;2024-01-15T05:17:29;98087.47;;;-5.42;100.00
71476;BME280;59286;59.274;17.974;2024-01-15T05:19:54;98080.56;;;-5.37;100.00
71476;BME280;59286;59.274;17.974;2024-01-15T05:22:20;98078.53;;;-5.35;100.00
71476;BME280;59286;59.274;17.974;2024-01-15T05:24:46;98084.94;;;-5.32;100.00
71476;BME280;59286;59.274;17.974;2024-01-15T05:27:11;98086.97;;;-5.29;100.00
71476;BME280;59286;59.274;17.974;2024-01-15T05:29:37;98077.50;;;-5.39;100.00
71476;BME280;59286;59.274;17.974;2024-01-15T05:32:02;98069.09;;;-5.39;98.94
71476;BME280;59286;59.274;17.974;2024-01-15T05:34:27;98085.94;;;-5.33;99.81
71476;BME280;59286;59.274;17.974;2024-01-15T05:36:53;98090.03;;;-5.32;100.00
71476;BME280;59286;59.274;17.974;2024-01-15T05:39:18;98076.25;;;-5.36;99.84
71476;BME280;59286;59.274;17.974;2024-01-15T05:41:43;98094.38;;;-5.33;100.00
71476;BME280;59286;59.274;17.974;2024-01-15T05:44:09;98089.25;;;-5.38;100.00
71476;BME280;59286;59.274;17.974;2024-01-15T05:46:35;98073.44;;;-5.40;100.00
71476;BME280;59286;59.274;17.974;2024-01-15T05:49:00;98093.59;;;-5.38;100.00
71476;BME280;59286;59.274;17.974;2024-01-15T05:51:25;98094.09;;;-5.41;100.00
71476;BME280;59286;59.274;17.974;2024-01-15T05:53:51;98103.81;;;-5.38;100.00
71476;BME280;59286;59.274;17.974;2024-01-15T05:56:16;98102.78;;;-5.42;100.00
71476;BME280;59286;59.274;17.974;2024-01-15T05:58:41;98104.31;;;-5.41;100.00
71476;BME280;59286;59.274;17.974;2024-01-15T06:01:06;98104.81;;;-5.44;100.00
71476;BME280;59286;59.274;17.974;2024-01-15T06:03:32;98104.81;;;-5.44;100.00
71476;BME280;59286;59.274;17.974;2024-01-15T06:05:57;98116.03;;;-5.40;100.00
71476;BME280;59286;59.274;17.974;2024-01-15T06:08:22;98087.94;;;-5.55;100.00
71476;BME280;59286;59.274;17.974;2024-01-15T06:10:48;98108.91;;;-5.48;100.00
71476;BME280;59286;59.274;17.974;2024-01-15T06:13:13;98117.03;;;-5.46;100.00
71476;BME280;59286;59.274;17.974;2024-01-15T06:15:38;98116.03;;;-5.50;100.00
71476;BME280;59286;59.274;17.974;2024-01-15T06:18:04;98113.75;;;-5.47;100.00
71476;BME280;59286;59.274;17.974;2024-01-15T06:20:29;98093.81;;;-5.50;100.00
71476;BME280;59286;59.274;17.974;2024-01-15T06:22:55;98116.25;;;-5.52;100.00
71476;BME280;59286;59.274;17.974;2024-01-15T06:25:20;98128.28;;;-5.47;100.00
71476;BME280;59286;59.274;17.974;2024-01-15T06:27:45;98134.91;;;-5.51;100.00
71476;BME280;59286;59.274;17.974;2024-01-15T06:30:11;98133.63;;;-5.49;100.00
71476;BME280;59286;59.274;17.974;2024-01-15T06:32:37;98126.72;;;-5.58;100.00
71476;BME280;59286;59.274;17.974;2024-01-15T06:35:02;98129.75;;;-5.66;100.00
71476;BME280;59286;59.274;17.974;2024-01-15T06:37:27;98143.53;;;-5.62;100.00
71476;BME280;59286;59.274;17.974;2024-01-15T06:39:53;98135.34;;;-5.69;100.00
71476;BME280;59286;59.274;17.974;2024-01-15T06:42:18;98125.63;;;-5.72;100.00
71476;BME280;59286;59.274;17.974;2024-01-15T06:44:44;98152.44;;;-5.65;100.00
71476;BME280;59286;59.274;17.974;2024-01-15T06:47:09;98143.00;;;-5.69;100.00
71476;BME280;59286;59.274;17.974;2024-01-15T06:49:34;98146.09;;;-5.62;100.00
71476;BME280;59286;59.274;17.974;2024-01-15T06:52:00;98140.19;;;-5.73;100.00
71476;BME280;59286;59.274;17.974;2024-01-15T06:54:25;98140.47;;;-5.64;100.00
71476;BME280;59286;59.274;17.974;2024-01-15T06:56:51;98151.44;;;-5.59;100.00
71476;BME280;59286;59.274;17.974;2024-01-15T06:59:17;98150.66;;;-5.64;97.86
71476;BME280;59286;59.274;17.974;2024-01-15T07:01:42;98147.88;;;-5.63;98.35
71476;BME280;59286;59.274;17.974;2024-01-15T07:04:08;98159.88;;;-5.58;97.22
71476;BME280;59286;59.274;17.974;2024-01-15T07:06:33;98146.63;;;-5.55;97.36
71476;BME280;59286;59.274;17.974;2024-01-15T07:08:58;98147.34;;;-5.70;97.80
71476;BME280;59286;59.274;17.974;2024-01-15T07:11:24;98159.34;;;-5.65;97.38
71476;BME280;59286;59.274;17.974;2024-01-15T07:13:49;98134.56;;;-5.75;97.35
71476;BME280;59286;59.274;17.974;2024-01-15T07:16:14;98157.28;;;-5.73;96.54
71476;BME280;59286;59.274;17.974;2024-01-15T07:18:40;98156.03;;;-5.66;96.94
71476;BME280;59286;59.274;17.974;2024-01-15T07:21:06;98138.38;;;-5.72;96.29
71476;BME280;59286;59.274;17.974;2024-01-15T07:23:31;98140.97;;;-5.67;96.27
71476;BME280;59286;59.274;17.974;2024-01-15T07:25:57;98150.66;;;-5.64;95.02
71476;BME280;59286;59.274;17.974;2024-01-15T07:28:22;98154.78;;;-5.63;94.45
71476;BME280;59286;59.274;17.974;2024-01-15T07:30:48;98158.31;;;-5.69;94.43
71476;BME280;59286;59.274;17.974;2024-01-15T07:33:13;98158.31;;;-5.69;94.07
71476;BME280;59286;59.274;17.974;2024-01-15T07:35:38;98173.09;;;-5.71;93.70
71476;BME280;59286;59.274;17.974;2024-01-15T07:38:04;98165.94;;;-5.74;94.33
71476;BME280;59286;59.274;17.974;2024-01-15T07:40:29;98170.03;;;-5.73;94.65
71476;BME280;59286;59.274;17.974;2024-01-15T07:42:54;98161.59;;;-5.74;94.11
71476;BME280;59286;59.274;17.974;2024-01-15T07:45:20;98177.16;;;-5.75;93.65
71476;BME280;59286;59.274;17.974;2024-01-15T07:47:45;98167.19;;;-5.77;93.46
71476;BME280;59286;59.274;17.974;2024-01-15T07:50:11;98186.34;;;-5.74;93.68
71476;BME280;59286;59.274;17.974;2024-01-15T07:52:36;98178.19;;;-5.76;93.01
71476;BME280;59286;59.274;17.974;2024-01-15T07:55:03;98171.50;;;-5.82;92.32
71476;BME280;59286;59.274;17.974;2024-01-15T07:57:31;98195.53;;;-5.68;93.27
71476;BME280;59286;59.274;17.974;2024-01-15T07:59:56;98194.28;;;-5.66;92.95
71476;BME280;59286;59.274;17.974;2024-01-15T08:02:22;98184.81;;;-5.70;92.30
71476;BME280;59286;59.274;17.974;2024-01-15T08:04:47;98196.06;;;-5.66;92.74
71476;BME280;59286;59.274;17.974;2024-01-15T08:07:12;98191.47;;;-5.64;91.86
71476;BME280;59286;59.274;17.974;2024-01-15T08:09:38;98190.22;;;-5.62;91.57
71476;BME280;59286;59.274;17.974;2024-01-15T08:12:03;98190.47;;;-5.63;90.70
71476;BME280;59286;59.274;17.974;2024-01-15T08:14:31;98193.78;;;-5.63;90.97
71476;BME280;59286;59.274;17.974;2024-01-15T08:16:56;98202.47;;;-5.64;90.39
71476;BME280;59286;59.274;17.974;2024-01-15T08:19:22;98194.31;;;-5.61;91.29
71476;BME280;59286;59.274;17.974;2024-01-15T08:21:47;98194.03;;;-5.64;90.76
71476;BME280;59286;59.274;17.974;2024-01-15T08:24:12;98188.16;;;-5.65;90.20
71476;BME280;59286;59.274;17.974;2024-01-15T08:26:37;98206.56;;;-5.58;90.74
71476;BME280;59286;59.274;17.974;2024-01-15T08:29:03;98203.25;;;-5.58;90.70
71476;BME280;59286;59.274;17.974;2024-01-15T08:31:28;98207.09;;;-5.51;90.59
71476;BME280;59286;59.274;17.974;2024-01-15T08:33:54;98203.25;;;-5.53;90.29
71476;BME280;59286;59.274;17.974;2024-01-15T08:36:21;98192.53;;;-5.60;90.37
71476;BME280;59286;59.274;17.974;2024-01-15T08:38:46;98214.00;;;-5.51;90.70
71476;BME280;59286;59.274;17.974;2024-01-15T08:41:12;98210.91;;;-5.53;89.83
71476;BME280;59286;59.274;17.974;2024-01-15T08:43:37;98206.34;;;-5.51;89.95
71476;BME280;59286;59.274;17.974;2024-01-15T08:46:02;98185.66;;;-5.60;89.21
71476;BME280;59286;59.274;17.974;2024-01-15T08:48:29;98211.16;;;-5.55;88.87
71476;BME280;59286;59.274;17.974;2024-01-15T08:50:54;98220.34;;;-5.59;89.13
71476;BME280;59286;59.274;17.974;2024-01-15T08:53:20;98197.88;;;-5.67;88.00
71476;BME280;59286;59.274;17.974;2024-01-15T08:55:46;98208.34;;;-5.63;88.83
71476;BME280;59286;59.274;17.974;2024-01-15T08:58:11;98212.94;;;-5.60;87.89
71476;BME280;59286;59.274;17.974;2024-01-15T09:00:36;98225.19;;;-5.57;88.94
71476;BME280;59286;59.274;17.974;2024-01-15T09:03:02;98223.66;;;-5.53;88.99
71476;BME280;59286;59.274;17.974;2024-01-15T09:05:27;98219.34;;;-5.53;88.53
71476;BME280;59286;59.274;17.974;2024-01-15T09:07:54;98216.53;;;-5.51;88.52
71476;BME280;59286;59.274;17.974;2024-01-15T09:10:19;98226.75;;;-5.51;88.32
71476;BME280;59286;59.274;17.974;2024-01-15T09:12:45;98216.50;;;-5.61;87.02
71476;BME280;59286;59.274;17.974;2024-01-15T09:15:10;98222.63;;;-5.57;87.58
71476;BME280;59286;59.274;17.974;2024-01-15T09:17:36;98220.59;;;-5.55;88.43
71476;BME280;59286;59.274;17.974;2024-01-15T09:20:01;98199.16;;;-5.59;87.08
71476;BME280;59286;59.274;17.974;2024-01-15T09:22:27;98218.31;;;-5.52;87.11
71476;BME280;59286;59.274;17.974;2024-01-15T09:24:52;98228.28;;;-5.50;87.32
71476;BME280;59286;59.274;17.974;2024-01-15T09:27:18;98216.28;;;-5.55;87.03
71476;BME280;59286;59.274;17.974;2024-01-15T09:29:43;98229.81;;;-5.49;86.31
71476;BME280;59286;59.274;17.974;2024-01-15T09:32:11;98234.13;;;-5.60;86.85
71476;BME280;59286;59.274;17.974;2024-01-15T09:34:36;98230.59;;;-5.54;86.58
71476;BME280;59286;59.274;17.974;2024-01-15T09:37:02;98247.16;;;-5.51;86.18
71476;BME280;59286;59.274;17.974;2024-01-15T09:39:28;98222.94;;;-5.54;86.35
71476;BME280;59286;59.274;17.974;2024-01-15T09:41:54;98225.47;;;-5.54;87.01
71476;BME280;59286;59.274;17.974;2024-01-15T09:44:20;98231.84;;;-5.51;86.38
71476;BME280;59286;59.274;17.974;2024-01-15T09:46:46;98229.28;;;-5.51;85.94
71476;BME280;59286;59.274;17.974;2024-01-15T09:49:14;98233.41;;;-5.50;86.19
71476;BME280;59286;59.274;17.974;2024-01-15T09:51:42;98238.00;;;-5.47;85.88
71476;BME280;59286;59.274;17.974;2024-01-15T09:54:08;98229.56;;;-5.53;85.37
71476;BME280;59286;59.274;17.974;2024-01-15T09:56:33;98242.59;;;-5.44;85.46
71476;BME280;59286;59.274;17.974;2024-01-15T09:58:59;98250.75;;;-5.47;84.67
71476;BME280;59286;59.274;17.974;2024-01-15T10:01:25;98240.03;;;-5.49;84.47
71476;BME280;59286;59.274;17.974;2024-01-15T10:03:51;98249.22;;;-5.48;84.31
71476;BME280;59286;59.274;17.974;2024-01-15T10:06:17;98244.63;;;-5.46;85.36
71476;BME280;59286;59.274;17.974;2024-01-15T10:08:50;98253.84;;;-5.40;85.07
71476;BME280;59286;59.274;17.974;2024-01-15T10:11:16;98267.66;;;-5.31;85.04
71476;BME280;59286;59.274;17.974;2024-01-15T10:13:43;98264.88;;;-5.30;84.44
71476;BME280;59286;59.274;17.974;2024-01-15T10:16:09;98274.31;;;-5.30;84.85
71476;BME280;59286;59.274;17.974;2024-01-15T10:18:35;98263.31;;;-5.36;84.66
71476;BME280;59286;59.274;17.974;2024-01-15T10:21:02;98285.00;;;-5.33;84.39
71476;BME280;59286;59.274;17.974;2024-01-15T10:23:28;98266.34;;;-5.39;83.38
71476;BME280;59286;59.274;17.974;2024-01-15T10:25:53;98259.44;;;-5.43;85.00
71476;BME280;59286;59.274;17.974;2024-01-15T10:28:19;98271.72;;;-5.40;85.13
71476;BME280;59286;59.274;17.974;2024-01-15T10:30:44;98269.16;;;-5.40;84.95
71476;BME280;59286;59.274;17.974;2024-01-15T10:33:10;98267.66;;;-5.31;84.87
71476;BME280;59286;59.274;17.974;2024-01-15T10:35:37;98278.66;;;-5.26;83.80
71476;BME280;59286;59.274;17.974;2024-01-15T10:38:03;98275.56;;;-5.33;82.56
71476;BME280;59286;59.274;17.974;2024-01-15T10:40:30;98268.16;;;-5.34;82.18
71476;BME280;59286;59.274;17.974;2024-01-15T10:42:56;98280.41;;;-5.31;81.92
71476;BME280;59286;59.274;17.974;2024-01-15T10:45:21;98270.25;;;-5.26;82.58
71476;BME280;59286;59.274;17.974;2024-01-15T10:47:47;98265.16;;;-5.21;82.41
71476;BME280;59286;59.274;17.974;2024-01-15T10:50:14;98283.50;;;-5.29;81.44
71476;BME280;59286;59.274;17.974;2024-01-15T10:52:40;98285.06;;;-5.18;82.46
71476;BME280;59286;59.274;17.974;2024-01-15T10:55:07;98269.75;;;-5.23;82.13
71476;BME280;59286;59.274;17.974;2024-01-15T10:57:34;98289.44;;;-5.19;82.33
71476;BME280;59286;59.274;17.974;2024-01-15T11:00:00;98275.13;;;-5.20;81.97
71476;BME280;59286;59.274;17.974;2024-01-15T11:02:28;98276.63;;;-5.29;80.76
71476;BME280;59286;59.274;17.974;2024-01-15T11:04:53;98274.31;;;-5.30;80.60
71476;BME280;59286;59.274;17.974;2024-01-15T11:07:21;98281.72;;;-5.34;79.68
71476;BME280;59286;59.274;17.974;2024-01-15T11:09:49;98295.22;;;-5.33;80.16
71476;BME280;59286;59.274;17.974;2024-01-15T11:12:16;98298.59;;;-5.28;80.03
71476;BME280;59286;59.274;17.974;2024-01-15T11:14:46;98298.53;;;-5.38;80.49
71476;BME280;59286;59.274;17.974;2024-01-15T11:17:13;98291.13;;;-5.39;80.16
71476;BME280;59286;59.274;17.974;2024-01-15T11:19:49;98298.72;;;-5.44;80.12
71476;BME280;59286;59.274;17.974;2024-01-15T11:24:56;98295.44;;;-5.40;79.98
71476;BME280;59286;59.274;17.974;2024-01-15T11:27:47;98287.53;;;-5.38;80.02
71476;BME280;59286;59.274;17.974;2024-01-15T11:30:16;98279.59;;;-5.47;79.11
71476;BME280;59286;59.274;17.974;2024-01-15T11:32:41;98287.78;;;-5.40;78.70
71476;BME280;59286;59.274;17.974;2024-01-15T11:35:08;98291.59;;;-5.47;79.30
71476;BME280;59286;59.274;17.974;2024-01-15T11:40:19;98290.84;;;-5.43;79.03
71476;BME280;59286;59.274;17.974;2024-01-15T11:42:45;98287.50;;;-5.48;78.64
71476;BME280;59286;59.274;17.974;2024-01-15T11:45:11;98291.06;;;-5.44;78.99
71476;BME280;59286;59.274;17.974;2024-01-15T11:50:11;98297.66;;;-5.53;78.56
71476;BME280;59286;59.274;17.974;2024-01-15T11:52:38;98301.75;;;-5.52;79.30
71476;BME280;59286;59.274;17.974;2024-01-15T11:55:19;98301.53;;;-5.46;79.25
71476;BME280;59286;59.274;17.974;2024-01-15T11:57:50;98302.03;;;-5.49;78.39
71476;BME280;59286;59.274;17.974;2024-01-15T12:00:18;98274.69;;;-5.58;77.82
71476;BME280;59286;59.274;17.974;2024-01-15T12:02:45;98305.78;;;-5.61;77.31
71476;BME280;59286;59.274;17.974;2024-01-15T12:05:13;98311.97;;;-5.52;77.70
71476;BME280;59286;59.274;17.974;2024-01-15T12:07:47;98315.00;;;-5.55;78.32
71476;BME280;59286;59.274;17.974;2024-01-15T12:10:17;98318.59;;;-5.51;78.82
71476;BME280;59286;59.274;17.974;2024-01-15T12:12:59;98315.53;;;-5.53;78.16
71476;BME280;59286;59.274;17.974;2024-01-15T12:15:27;98311.66;;;-5.61;78.14
71476;BME280;59286;59.274;17.974;2024-01-15T12:18:01;98336.47;;;-5.46;78.61
71476;BME280;59286;59.274;17.974;2024-01-15T12:20:28;98318.63;;;-5.46;77.29
71476;BME280;59286;59.274;17.974;2024-01-15T12:22:54;98327.81;;;-5.50;76.91
71476;BME280;59286;59.274;17.974;2024-01-15T12:25:23;98316.50;;;-5.59;77.10
71476;BME280;59286;59.274;17.974;2024-01-15T12:27:49;98322.19;;;-5.47;77.78
71476;BME280;59286;59.274;17.974;2024-01-15T12:30:15;98313.81;;;-5.43;77.61
71476;BME280;59286;59.274;17.974;2024-01-15T12:32:41;98313.72;;;-5.58;77.68
71476;BME280;59286;59.274;17.974;2024-01-15T12:35:10;98320.63;;;-5.53;77.88
71476;BME280;59286;59.274;17.974;2024-01-15T12:37:40;98313.44;;;-5.61;78.10
71476;BME280;59286;59.274;17.974;2024-01-15T12:40:06;98289.69;;;-5.67;76.36
71476;BME280;59286;59.274;17.974;2024-01-15T12:42:36;98331.31;;;-5.61;76.91
71476;BME280;59286;59.274;17.974;2024-01-15T12:45:02;98335.66;;;-5.57;77.77
71476;BME280;59286;59.274;17.974;2024-01-15T12:47:30;98329.56;;;-5.56;77.24
71476;BME280;59286;59.274;17.974;2024-01-15T12:49:55;98334.13;;;-5.58;77.35